ADDS METAR Data INFO
IDs: Format: Raw Decoded Include TAF

Data at: 0923 UTC 13 Dec 2017

KXVG 130914Z AUTO 08003KT 2 1/2SM -SN BKN011 OVC038 M07/M08 A2940 RMK AO2
KXVG 130856Z AUTO 00000KT 3/4SM -SN BKN006 OVC011 M07/M08 A2941 RMK AO2
KXVG 130835Z AUTO 00000KT 1SM -SN OVC006 M07/M08 A2940 RMK AO2
KXVG 130815Z AUTO 13006KT 4SM UP BKN008 BKN029 OVC050 M08/M08 A2938 RMK AO2
KXVG 130755Z AUTO 14007KT 3SM UP BKN008 BKN028 OVC032 M08/M09 A2939 RMK AO2
KXVG 130736Z AUTO 14005KT 10SM UP OVC008 M08/M09 A2942 RMK AO2
KXVG 130715Z AUTO 14006KT 10SM OVC008 M08/M09 A2942 RMK AO2
KXVG 130655Z AUTO 14004KT 10SM OVC008 M08/M09 A2944 RMK AO2
KXVG 130635Z AUTO 14008KT 10SM OVC008 M08/M09 A2945 RMK AO2
KXVG 130615Z AUTO 13007KT 10SM OVC008 M08/M09 A2947 RMK AO2
KXVG 130555Z AUTO 12004KT 10SM OVC010 M08/M09 A2947 RMK AO2
KXVG 130535Z AUTO 13005KT 10SM BKN010 OVC075 M08/M09 A2948 RMK AO2
KXVG 130515Z AUTO 13005KT 10SM SCT010 BKN060 OVC075 M08/M09 A2950 RMK AO2
KXVG 130455Z AUTO 13005KT 10SM BKN010 OVC060 M08/M09 A2951 RMK AO2
KXVG 130436Z AUTO 14004KT 10SM BKN010 OVC055 M08/M09 A2953 RMK AO2
KXVG 130415Z AUTO 13005KT 10SM BKN010 OVC065 M08/M09 A2954 RMK AO2
KXVG 130356Z AUTO 14005KT 10SM BKN010 OVC065 M08/M09 A2956 RMK AO2
KXVG 130335Z AUTO 14006KT 10SM BKN010 OVC065 M08/M09 A2958 RMK AO2
KXVG 130316Z AUTO 15005KT 10SM BKN010 OVC065 M08/M09 A2960 RMK AO2
KXVG 130255Z AUTO 14008KT 10SM SCT012 OVC065 M08/M09 A2961 RMK AO2
KXVG 130235Z AUTO 15007KT 10SM SCT012 OVC065 M08/M10 A2964 RMK AO2
KXVG 130215Z AUTO 15006KT 10SM BKN012 OVC065 M08/M10 A2966 RMK AO2
KXVG 130155Z AUTO 14005KT 10SM SCT012 OVC065 M08/M10 A2968 RMK AO2
KXVG 130135Z AUTO 14007KT 10SM SCT012 OVC065 M09/M10 A2969 RMK AO2
KXVG 130115Z AUTO 14006KT 10SM SCT012 BKN065 OVC085 M09/M11 A2971 RMK AO2
KXVG 130056Z AUTO 14007KT 10SM SCT012 BKN050 OVC085 M09/M11 A2972 RMK AO2
KXVG 130036Z AUTO 15006KT 10SM OVC012 M09/M11 A2974 RMK AO2
KXVG 130016Z AUTO 14006KT 10SM OVC012 M09/M11 A2974 RMK AO2
KXVG 122355Z AUTO 14005KT 10SM OVC012 M09/M11 A2976 RMK AO2
KXVG 122336Z AUTO 13006KT 10SM OVC012 M09/M11 A2978 RMK AO2
KXVG 122315Z AUTO 13006KT 10SM OVC012 M09/M12 A2978 RMK AO2
KXVG 122256Z AUTO 14006KT 10SM OVC012 M09/M12 A2980 RMK AO2
KXVG 122236Z AUTO 14005KT 10SM OVC012 M09/M12 A2980 RMK AO2
KXVG 122215Z AUTO 14006KT 10SM OVC012 M10/M12 A2980 RMK AO2
KXVG 122155Z AUTO 15005KT 10SM OVC012 M10/M12 A2982 RMK AO2
KXVG 122135Z AUTO 15004KT 10SM OVC012 M10/M12 A2983 RMK AO2
KXVG 122116Z AUTO 12005KT 10SM OVC012 M10/M12 A2985 RMK AO2
KXVG 122056Z AUTO 14007KT 10SM OVC012 M10/M12 A2985 RMK AO2
KXVG 122035Z AUTO 16006KT 10SM OVC012 M10/M12 A2987 RMK AO2
KXVG 122015Z AUTO 15007KT 2SM -SN OVC014 M11/M12 A2988 RMK AO2
KXVG 121955Z AUTO 14007KT 1SM -SN BKN008 BKN016 OVC024 M11/M12 A2990 RMK AO2
KXVG 121935Z AUTO 15008KT 1 3/4SM -SN SCT013 OVC018 M11/M12 A2991 RMK AO2
KXVG 121915Z AUTO 16005KT 4SM -SN OVC024 M11/M12 A2993 RMK AO2
KXVG 121855Z AUTO 16007KT 3SM BR OVC022 M11/M13 A2995 RMK AO2
KXVG 121835Z AUTO 15006KT 2SM -SN OVC022 M11/M13 A2996 RMK AO2
KXVG 121817Z AUTO 14006KT 1 3/4SM -SN OVC025 M11/M13 A2997 RMK AO2
KXVG 121757Z AUTO 16005KT 1 3/4SM -SN BKN004 BKN020 OVC028 M12/M13 A2999 RMK AO2
KXVG 121738Z AUTO 17007KT 3/4SM -SN OVC004 M11/M12 A3000 RMK AO2
KXVG 121717Z AUTO 14006KT 1/2SM -SN OVC004 M12/M13 A3002 RMK AO2
KXVG 121658Z AUTO 17005KT 1/2SM -SN BKN004 OVC013 M12/M13 A3003 RMK AO2
KXVG 121637Z AUTO 16005KT 2 1/2SM -SN OVC013 M13/M14 A3004 RMK AO2
KXVG 121618Z AUTO 16004KT 10SM -SN SCT006 OVC017 M14/M15 A3006 RMK AO2
KXVG 121558Z AUTO 15003KT 7SM -SN BKN006 OVC017 M14/M15 A3005 RMK AO2
KXVG 121536Z AUTO 18003KT 10SM OVC006 M14/M16 A3007 RMK AO2
KXVG 121516Z AUTO 00000KT 7SM -SN OVC006 M15/M17 A3008 RMK AO2
KXVG 121455Z AUTO 00000KT 10SM OVC006 M16/M17 A3008 RMK AO2
KXVG 121436Z AUTO 00000KT 10SM OVC006 M16/M17 A3008 RMK AO2
KXVG 121416Z AUTO 00000KT 10SM -SN BKN006 OVC012 M16/M18 A3010 RMK AO2
KXVG 121355Z AUTO 00000KT 10SM OVC012 M17/M18 A3011 RMK AO2
KXVG 121336Z AUTO 00000KT 10SM -SN OVC012 M18/M19 A3012 RMK AO2
KXVG 121315Z AUTO 00000KT 10SM OVC014 M19/M20 A3013 RMK AO2
KXVG 121256Z AUTO 00000KT 10SM BKN014 BKN080 M20/M22 A3014 RMK AO2
KXVG 121236Z AUTO 00000KT 10SM CLR M21/M23 A3015 RMK AO2
KXVG 121216Z AUTO 00000KT 10SM CLR M21/M23 A3014 RMK AO2
KXVG 121156Z AUTO 00000KT 10SM CLR M21/M23 A3015 RMK AO2
KXVG 121136Z AUTO 00000KT 10SM CLR M21/M23 A3016 RMK AO2
KXVG 121115Z AUTO 24003KT 10SM CLR M21/M23 A3016 RMK AO2
KXVG 121056Z AUTO 00000KT 10SM CLR M21/M23 A3017 RMK AO2
KXVG 121035Z AUTO 26003KT 10SM CLR M22/M23 A3018 RMK AO2
KXVG 121015Z AUTO 25003KT 10SM CLR M22/M23 A3018 RMK AO2
KXVG 120955Z AUTO 00000KT 10SM CLR M21/M23 A3019 RMK AO2
KXVG 120936Z AUTO 00000KT 10SM CLR M20/M22 A3019 RMK AO2
KXVG 120915Z AUTO 00000KT 10SM CLR M20/M22 A3019 RMK AO2
KXVG 120855Z AUTO 00000KT 10SM CLR M19/M21 A3019 RMK AO2
KXVG 120836Z AUTO 00000KT 10SM CLR M19/M21 A3020 RMK AO2
KXVG 120815Z AUTO 28003KT 10SM -SN CLR M18/M19 A3020 RMK AO2
KXVG 120755Z AUTO 00000KT 10SM CLR M18/M19 A3021 RMK AO2
KXVG 120735Z AUTO 00000KT 7SM -SN CLR M18/M19 A3021 RMK AO2
KXVG 120715Z AUTO 30003KT 10SM CLR M17/M18 A3020 RMK AO2
KXVG 120656Z AUTO 30003KT 10SM CLR M17/M18 A3021 RMK AO2
KXVG 120635Z AUTO 30003KT 10SM CLR M17/M18 A3021 RMK AO2
KXVG 120616Z AUTO 29003KT 10SM CLR M16/M18 A3022 RMK AO2
KXVG 120555Z AUTO 32006KT 10SM CLR M16/M18 A3022 RMK AO2
KXVG 120535Z AUTO 31004KT 10SM CLR M16/M18 A3022 RMK AO2
KXVG 120515Z AUTO 31005KT 10SM CLR M15/M17 A3022 RMK AO2
KXVG 120455Z AUTO 31005KT 10SM -SN CLR M15/M17 A3022 RMK AO2
KXVG 120435Z AUTO 31006KT 10SM CLR M15/M17 A3022 RMK AO2
KXVG 120415Z AUTO 31006KT 10SM CLR M14/M17 A3022 RMK AO2
KXVG 120356Z AUTO 31005KT 10SM CLR M14/M17 A3022 RMK AO2
KXVG 120335Z AUTO 31006KT 10SM CLR M14/M16 A3022 RMK AO2
KXVG 120315Z AUTO 30008G16KT 274V354 10SM -SN CLR M14/M16 A3022 RMK AO2
KXVG 120255Z AUTO 31007KT 284V344 10SM -SN SCT015 M13/M16 A3022 RMK AO2
KXVG 120235Z AUTO 31009G15KT 274V344 10SM -SN OVC017 M13/M16 A3021 RMK AO2
KXVG 120216Z AUTO 31006KT 10SM -SN OVC015 M12/M15 A3021 RMK AO2
KXVG 120155Z AUTO 33009G16KT 294V004 10SM -SN BKN016 M12/M15 A3020 RMK AO2
KXVG 120136Z AUTO 32008G14KT 284V004 10SM -SN OVC018 M12/M14 A3019 RMK AO2
KXVG 120115Z AUTO 31012G19KT 294V354 10SM -SN OVC020 M11/M14 A3018 RMK AO2
KXVG 120056Z AUTO 30010G19KT 10SM -SN OVC020 M10/M13 A3017 RMK AO2
KXVG 120035Z AUTO 30008G17KT 284V344 10SM -SN OVC022 M09/M13 A3016 RMK AO2
KXVG 120016Z AUTO 32007G17KT 10SM -SN BKN022 M09/M12 A3015 RMK AO2
KXVG 112356Z AUTO 31007KT 284V344 10SM SCT018 M09/M13 A3014 RMK AO2
KXVG 112335Z AUTO 32005KT 10SM CLR M09/M13 A3013 RMK AO2
KXVG 112315Z AUTO 32006KT 10SM CLR M08/M13 A3012 RMK AO2
KXVG 112255Z AUTO 33007KT 294V004 10SM CLR M08/M13 A3011 RMK AO2
KXVG 112235Z AUTO 33005KT 10SM CLR M08/M13 A3009 RMK AO2
KXVG 112215Z AUTO 32006KT 10SM SCT026 M07/M12 A3008 RMK AO2
KXVG 112155Z AUTO 30010G15KT 10SM SCT026 M06/M11 A3006 RMK AO2